• Join FlightAware (Why Join?)
  • Login
  • US Flag 
01:59PM EDT


 

Airport Tracker/Info


-or-


 

Live Flight TrackerFlight Track Log ✈ SKW5550 ✈ 19-Aug-2013 ✈ KCOD - KDEN

Flight Track Log - Related Links

Times and Time Zones

All times are in EDT time to prevent confusion due to time zone crossing. See the SKW5550 flight status page for this flight to view local times or setup timezone preferences in your user account.

Time Position Orientation Groundspeed Altitude Reporting Facility
EDT Latitude Longitude Course Direction KTS MPH feet Rate Location/Type
07:53AM 44.5133 -108.9072 157° South 214 246 8,200  Level Salt Lake Center
07:54AM 44.3901 -108.8322 154° Southeast  Level FlightAware Approximate
07:54AM 44.4497 -108.8667 156° South 237 273 9,600  Level Salt Lake Center
07:55AM 44.2836 -108.7613 154° Southeast  Level FlightAware Approximate
07:55AM 44.3725 -108.8242 159° South 263 303 11,000  Level Salt Lake Center
07:56AM 44.1749 -108.6975 158° South  Level FlightAware Approximate
07:56AM 44.2908 -108.7750 157° South 291 335 12,600  Level Salt Lake Center
07:57AM 44.0652 -108.6370 159° South  Level FlightAware Approximate
07:57AM 44.2144 -108.6969 144° Southeast 321 369 14,000  Level Salt Lake Center
07:58AM 43.9555 -108.5768 157° South  Level FlightAware Approximate
07:58AM 44.1367 -108.6178 144° Southeast 337 388 15,500  Level Salt Lake Center
07:59AM 44.0544 -108.5378 145° Southeast 349 402 17,000 1,500 Climbing Salt Lake Center
08:00AM 43.9725 -108.4556 144° Southeast 359 413 18,500 1,380 Climbing Salt Lake Center
08:01AM 43.8922 -108.3753 144° Southeast 358 412 19,800 1,140 Climbing Salt Lake Center
08:02AM 43.8103 -108.2961 145° Southeast 359 413 20,900 1,020 Climbing Salt Lake Center
08:03AM 43.7250 -108.2125 145° Southeast 373 429 21,900 900 Climbing Salt Lake Center
08:04AM 43.6386 -108.1261 144° Southeast 383 441 22,700 720 Climbing Salt Lake Center
08:05AM 43.5483 -108.0400 145° Southeast 394 453 23,400 660 Climbing Salt Lake Center
08:06AM 43.4558 -107.9481 144° Southeast 407 468 24,100 660 Climbing Salt Lake Center
08:07AM 43.3625 -107.8606 146° Southeast 407 468 24,800 720 Climbing Salt Lake Center
08:08AM 43.2683 -107.7669 144° Southeast 417 480 25,600 720 Climbing Salt Lake Center
08:09AM 43.1736 -107.6769 145° Southeast 417 480 26,300 660 Climbing Salt Lake Center
08:10AM 43.0786 -107.5861 145° Southeast 418 481 27,000 660 Climbing Salt Lake Center
08:11AM 42.9831 -107.4947 145° Southeast 420 483 27,700 660 Climbing Salt Lake Center
08:12AM 42.8847 -107.4000 145° Southeast 418 481 28,400 720 Climbing Salt Lake Center
08:13AM 42.7806 -107.3014 145° Southeast 411 473 29,200 600 Climbing Salt Lake Center
08:14AM 42.6878 -107.2169 146° Southeast 415 478 29,700 480 Climbing Salt Lake Center
08:15AM 42.5969 -107.1306 145° Southeast 415 478 30,200 480 Climbing Salt Lake Center
08:16AM 42.4892 -107.0311 146° Southeast 418 481 30,700 360 Climbing Salt Lake Center
08:17AM 42.4039 -106.9525 146° Southeast 419 482 31,000 120 Climbing Salt Lake Center
08:18AM 42.3053 -106.8600 145° Southeast 420 483 31,000  Level Salt Lake Center
08:19AM 42.2092 -106.7725 146° Southeast 432 497 31,000  Level Salt Lake Center
08:20AM 42.0969 -106.6694 146° Southeast 435 501 31,000  Level Salt Lake Center
08:21AM 41.9919 -106.5744 146° Southeast 438 504 31,000  Level Salt Lake Center
08:22AM 41.8950 -106.4847 145° Southeast 442 509 31,000  Level Salt Lake Center
08:23AM 41.7986 -106.3967 146° Southeast 439 505 31,000  Level Salt Lake Center
08:24AM 41.7006 -106.3086 146° Southeast 443 510 31,000  Level Salt Lake Center
08:25AM 41.5864 -106.2044 146° Southeast 445 512 31,000  Level Denver Center
08:26AM 41.4719 -106.1028 146° Southeast 443 510 31,000  Level Denver Center
08:27AM 41.3736 -106.0147 146° Southeast 446 513 31,000  Level Denver Center
08:28AM 41.2581 -105.9125 146° Southeast 447 514 31,000  Level Denver Center
08:29AM 41.1586 -105.8228 146° Southeast 451 519 31,000 -900 Level Denver Center
08:30AM 41.0581 -105.7358 147° Southeast 454 522 29,200 -1,860 Descending Denver Center
08:31AM 40.9756 -105.6619 146° Southeast 469 540 27,300 -2,460 Descending Denver Center
08:32AM 40.8433 -105.5456 146° Southeast 476 548 24,300 -2,940 Descending Denver Center
08:33AM 40.7128 -105.4303 146° Southeast 472 543 21,400 -2,160 Descending Denver Center
08:34AM 40.6111 -105.3408 146° Southeast 446 513 20,000 -1,200 Descending Denver Center
08:35AM 40.5197 -105.2619 147° Southeast 400 460 19,000 -1,260 Descending Denver Center
08:36AM 40.4656 -105.1469 122° Southeast 414 476 17,500 -1,860 Descending Denver Center
08:37AM 40.3850 -105.0422 135° Southeast 409 471 15,300 -2,220 Descending Denver Center
08:38AM 40.3067 -104.9186 130° Southeast 407 468 13,100 -1,680 Descending Denver Center
08:39AM 40.2342 -104.8339 138° Southeast 345 397 11,900 -1,320 Descending Denver Center
08:40AM 40.1550 -104.7906 157° South 304 350 10,500 -1,500 Descending Denver Center
08:41AM 40.0825 -104.7506 157° South 284 327 8,900 -1,380 Descending Denver Center
08:42AM 40.0172 -104.7150 157° South 252 290 7,800 -1,140 Descending Denver Center
08:43AM 39.9628 -104.6956 165° South 200 230 6,700 -1,080 Descending Denver Center
08:44AM 39.9111 -104.6953 180° South 172 198 5,700 -720 Descending Denver Center
08:45AM 39.8781 -104.6961 181° South 141 162 5,300 -420 Descending Denver Center